createdAt,value
2018-11-05T00:00:46.643Z,8.75
2018-11-05T00:03:15.722Z,8.72
2018-11-05T00:05:44.852Z,8.72
2018-11-05T00:08:13.934Z,8.69
2018-11-05T00:10:43.085Z,8.69
2018-11-05T00:13:12.078Z,8.59
2018-11-05T00:15:40.924Z,8.53
2018-11-05T00:18:10.082Z,8.47
2018-11-05T00:20:39.249Z,8.40
2018-11-05T00:23:08.478Z,8.37
2018-11-05T00:25:37.501Z,8.38
2018-11-05T00:28:06.878Z,8.43
2018-11-05T00:30:36.173Z,8.45
2018-11-05T00:33:05.450Z,8.40
2018-11-05T00:35:34.274Z,8.31
2018-11-05T00:38:03.351Z,8.24
2018-11-05T00:40:32.528Z,8.24
2018-11-05T00:43:02.225Z,8.20
2018-11-05T00:45:31.479Z,8.13
2018-11-05T00:48:00.326Z,8.15
2018-11-05T00:50:29.208Z,8.11
2018-11-05T00:52:58.010Z,8.10
2018-11-05T00:55:27.001Z,8.08
2018-11-05T00:57:56.185Z,8.11
2018-11-05T01:00:25.406Z,8.06
2018-11-05T01:02:54.494Z,7.98
2018-11-05T01:05:24.042Z,8.04
2018-11-05T01:07:53.205Z,8.17
2018-11-05T01:10:22.067Z,8.30
2018-11-05T01:12:50.987Z,8.31
2018-11-05T01:15:20.190Z,8.34
2018-11-05T01:17:49.350Z,8.32
2018-11-05T01:20:18.246Z,8.24
2018-11-05T01:22:47.615Z,8.25
2018-11-05T01:25:16.503Z,8.19
2018-11-05T01:27:45.587Z,8.30
2018-11-05T01:30:14.679Z,8.29
2018-11-05T01:32:43.718Z,8.37
2018-11-05T01:35:13.763Z,8.36
2018-11-05T01:37:42.944Z,8.43
2018-11-05T01:40:15.381Z,8.37
2018-11-05T02:00:51.636Z,8.93
2018-11-05T02:03:20.806Z,8.91
2018-11-05T02:05:50.074Z,8.79
2018-11-05T02:08:19.054Z,8.66
2018-11-05T02:10:48.349Z,8.59
2018-11-05T02:13:17.746Z,8.52
2018-11-05T02:15:46.632Z,8.45
2018-11-05T02:18:15.745Z,8.26
2018-11-05T02:20:44.967Z,8.12
2018-11-05T02:23:14.124Z,8.02
2018-11-05T02:25:43.111Z,8.17
2018-11-05T02:28:11.850Z,8.22
2018-11-05T02:30:41.114Z,8.22
2018-11-05T02:33:09.975Z,8.23
2018-11-05T02:35:39.225Z,8.20
2018-11-05T02:38:08.030Z,8.23
2018-11-05T02:40:36.982Z,8.28
2018-11-05T02:43:05.854Z,8.36
2018-11-05T02:45:34.956Z,8.43
2018-11-05T02:48:03.909Z,8.35
2018-11-05T02:50:32.954Z,8.42
2018-11-05T02:53:02.272Z,8.38
2018-11-05T02:55:31.443Z,8.24
2018-11-05T02:58:00.372Z,8.08
2018-11-05T03:00:29.631Z,8.08
2018-11-05T03:02:58.455Z,8.21
2018-11-05T03:05:27.590Z,8.18
2018-11-05T03:07:56.465Z,8.13
2018-11-05T03:10:25.498Z,8.05
2018-11-05T03:12:54.856Z,8.04
2018-11-05T03:15:23.623Z,7.95
2018-11-05T03:17:52.824Z,7.90
2018-11-05T03:20:22.077Z,7.91
2018-11-05T03:22:51.026Z,7.89
2018-11-05T03:25:20.136Z,7.85
2018-11-05T03:27:49.266Z,7.88
2018-11-05T03:30:19.323Z,7.87
2018-11-05T03:32:48.642Z,7.79
2018-11-05T03:35:17.875Z,7.72
2018-11-05T03:37:47.438Z,7.78
2018-11-05T03:40:16.475Z,7.80
2018-11-05T03:42:45.871Z,7.72
2018-11-05T03:45:15.919Z,7.61
2018-11-05T03:47:45.434Z,7.51
2018-11-05T03:50:17.010Z,7.40
2018-11-05T03:52:46.772Z,7.44
2018-11-05T03:55:16.782Z,7.47
2018-11-05T03:57:45.831Z,7.38
2018-11-05T04:00:15.997Z,7.33
2018-11-05T04:02:45.102Z,7.41
2018-11-05T04:05:13.886Z,7.49
2018-11-05T04:07:42.908Z,7.55
2018-11-05T04:10:13.181Z,7.50
2018-11-05T04:12:42.385Z,7.52
2018-11-05T04:15:11.896Z,7.54
2018-11-05T04:17:41.212Z,7.50
2018-11-05T04:20:12.379Z,7.54
2018-11-05T04:22:41.998Z,7.49
2018-11-05T04:25:11.402Z,7.53
2018-11-05T04:27:40.608Z,7.51
2018-11-05T04:30:11.794Z,7.42
2018-11-05T04:32:41.107Z,7.34
2018-11-05T04:35:10.630Z,7.32
2018-11-05T04:37:39.948Z,7.30
2018-11-05T04:40:10.019Z,7.31
2018-11-05T04:42:39.010Z,7.32
2018-11-05T04:45:09.938Z,7.33
2018-11-05T04:47:38.979Z,7.30
2018-11-05T04:50:09.217Z,7.21
2018-11-05T04:52:38.814Z,7.19
2018-11-05T04:55:08.003Z,7.16
2018-11-05T04:57:37.272Z,7.11
2018-11-05T05:00:12.230Z,7.10
2018-11-05T05:02:42.252Z,7.12
2018-11-05T05:05:12.478Z,7.11
2018-11-05T05:07:41.318Z,7.12
2018-11-05T05:10:10.665Z,7.16
2018-11-05T05:12:40.848Z,7.14
2018-11-05T05:15:10.439Z,7.14
2018-11-05T05:17:39.941Z,7.10
2018-11-05T05:20:11.422Z,7.10
2018-11-05T05:22:40.618Z,7.12
2018-11-05T05:25:09.515Z,7.21
2018-11-05T05:27:38.766Z,7.23
2018-11-05T05:30:18.337Z,7.25
2018-11-05T05:32:48.125Z,7.35
2018-11-05T05:35:18.085Z,7.36
2018-11-05T05:37:47.225Z,7.39
2018-11-05T05:40:16.466Z,7.44
2018-11-05T05:42:45.698Z,7.52
2018-11-05T05:45:14.866Z,7.56
2018-11-05T05:47:43.958Z,7.73
2018-11-05T05:50:15.790Z,7.90
2018-11-05T05:52:45.691Z,7.99
2018-11-05T05:55:14.951Z,8.02
2018-11-05T05:57:44.398Z,8.01
2018-11-05T06:00:15.079Z,8.01
2018-11-05T06:02:44.186Z,8.10
2018-11-05T06:05:14.257Z,8.16
2018-11-05T06:07:43.650Z,8.27
2018-11-05T06:10:14.066Z,8.37
2018-11-05T06:12:43.382Z,8.50
2018-11-05T06:15:13.993Z,8.55
2018-11-05T06:17:43.323Z,8.71
2018-11-05T06:20:15.306Z,8.88
2018-11-05T06:22:45.272Z,8.95
2018-11-05T06:25:14.226Z,9.04
2018-11-05T06:27:43.398Z,9.05
2018-11-05T06:30:15.631Z,9.14
2018-11-05T06:32:45.845Z,9.36
2018-11-05T06:35:15.167Z,9.32
2018-11-05T06:37:44.391Z,9.44
2018-11-05T06:40:14.970Z,9.70
2018-11-05T06:42:44.393Z,9.68
2018-11-05T06:45:15.617Z,9.76
2018-11-05T06:47:45.566Z,9.95
2018-11-05T06:50:20.480Z,10.13
2018-11-05T06:52:49.754Z,10.06
2018-11-05T06:55:18.826Z,10.13
2018-11-05T06:57:48.168Z,10.23
2018-11-05T07:00:22.690Z,10.32
2018-11-05T07:02:51.842Z,10.51
2018-11-05T07:05:21.090Z,10.66
2018-11-05T07:07:50.405Z,10.89
2018-11-05T07:10:19.839Z,10.98
2018-11-05T07:12:49.006Z,11.07
2018-11-05T07:15:19.030Z,11.24
2018-11-05T07:17:49.224Z,11.31
2018-11-05T07:20:19.331Z,11.34
2018-11-05T07:22:49.196Z,11.49
2018-11-05T07:25:18.447Z,11.47
2018-11-05T07:27:47.764Z,11.50
2018-11-05T07:30:19.309Z,11.58
2018-11-05T07:32:49.098Z,11.68
2018-11-05T07:35:17.875Z,11.73
2018-11-05T07:37:47.006Z,11.78
2018-11-05T07:40:16.963Z,11.85
2018-11-05T07:42:46.029Z,11.94
2018-11-05T07:45:17.406Z,12.06
2018-11-05T07:47:46.966Z,12.11
2018-11-05T07:50:17.084Z,12.21
2018-11-05T07:52:46.117Z,12.26
2018-11-05T07:55:16.362Z,12.35
2018-11-05T07:57:46.206Z,12.40
2018-11-05T08:00:21.175Z,12.54
2018-11-05T08:02:51.734Z,12.62
2018-11-05T08:05:21.530Z,12.70
2018-11-05T08:07:50.862Z,12.82
2018-11-05T08:10:19.658Z,12.84
2018-11-05T08:12:48.816Z,12.95
2018-11-05T08:15:22.261Z,13.03
2018-11-05T08:17:52.122Z,13.14
2018-11-05T08:20:21.361Z,13.26
2018-11-05T08:22:50.558Z,13.37
2018-11-05T08:25:19.583Z,13.47
2018-11-05T08:27:48.538Z,13.64
2018-11-05T08:30:21.917Z,13.79
2018-11-05T08:32:51.035Z,13.91
2018-11-05T08:35:20.268Z,14.00
2018-11-05T08:37:49.635Z,14.11
2018-11-05T08:40:20.458Z,14.22
2018-11-05T08:42:50.482Z,14.37
2018-11-05T08:45:20.566Z,14.55
2018-11-05T08:47:49.529Z,14.67
2018-11-05T08:50:19.633Z,14.77
2018-11-05T08:52:48.547Z,14.92
2018-11-05T08:55:19.639Z,15.00
2018-11-05T08:57:48.865Z,15.12
2018-11-05T09:00:23.755Z,15.12
2018-11-05T09:02:53.002Z,15.25
2018-11-05T09:05:22.272Z,15.32
2018-11-05T09:07:52.444Z,15.48
2018-11-05T09:10:21.663Z,15.54
2018-11-05T09:12:50.650Z,15.62
2018-11-05T09:15:20.837Z,15.60
2018-11-05T09:17:50.007Z,15.62
2018-11-05T09:20:19.853Z,15.65
2018-11-05T09:22:49.770Z,15.66
2018-11-05T09:25:19.012Z,15.68
2018-11-05T09:27:47.973Z,15.67
2018-11-05T09:30:21.468Z,15.82
2018-11-05T09:32:50.559Z,15.86
2018-11-05T09:35:19.600Z,15.96
2018-11-05T09:37:48.722Z,16.03
2018-11-05T09:40:20.310Z,16.11
2018-11-05T09:42:49.869Z,16.18
2018-11-05T09:45:20.962Z,16.34
2018-11-05T09:47:50.051Z,16.42
2018-11-05T09:50:19.851Z,16.57
2018-11-05T09:52:48.941Z,16.78
2018-11-05T09:55:18.118Z,16.96
2018-11-05T09:57:47.326Z,17.17
2018-11-05T10:00:20.369Z,17.29
2018-11-05T10:02:54.665Z,17.59
2018-11-05T10:05:23.595Z,17.86
2018-11-05T10:07:52.710Z,18.09
2018-11-05T10:10:21.944Z,18.34
2018-11-05T10:12:51.083Z,18.46
2018-11-05T10:15:20.280Z,18.45
2018-11-05T10:17:49.359Z,18.49
2018-11-05T10:20:20.703Z,18.81
2018-11-05T10:22:49.749Z,19.36
2018-11-05T10:25:19.040Z,19.95
2018-11-05T10:27:48.910Z,20.45
2018-11-05T10:30:19.540Z,20.80
2018-11-05T10:32:48.563Z,21.26
2018-11-05T10:35:18.195Z,21.97
2018-11-05T10:37:47.137Z,22.40
2018-11-05T10:40:18.289Z,22.73
2018-11-05T10:42:47.666Z,22.60
2018-11-05T10:45:17.950Z,23.01
2018-11-05T10:47:46.759Z,23.41
2018-11-05T10:50:16.891Z,23.59
2018-11-05T10:52:49.918Z,23.61
2018-11-05T10:55:19.091Z,23.54
2018-11-05T10:57:48.296Z,23.51
2018-11-05T11:00:24.594Z,23.54
2018-11-05T11:02:58.712Z,23.64
2018-11-05T11:05:28.662Z,24.11
2018-11-05T11:07:58.567Z,24.32
2018-11-05T11:10:28.339Z,25.45
2018-11-05T11:12:57.807Z,26.58
2018-11-05T11:15:26.972Z,27.62
2018-11-05T11:17:56.316Z,28.62
2018-11-05T11:20:25.343Z,29.40
2018-11-05T11:22:54.654Z,29.37
2018-11-05T11:25:23.905Z,30.03
2018-11-05T11:27:52.882Z,30.84
2018-11-05T11:30:21.718Z,31.89
2018-11-05T11:32:51.742Z,32.82
2018-11-05T11:35:20.770Z,33.68
2018-11-05T11:37:49.934Z,34.33
2018-11-05T11:40:20.570Z,34.99
2018-11-05T11:42:50.163Z,35.44
2018-11-05T11:45:20.482Z,35.80
2018-11-05T11:47:49.725Z,35.65
2018-11-05T11:50:18.992Z,35.57
2018-11-05T11:52:48.234Z,34.63
2018-11-05T11:55:18.402Z,34.40
2018-11-05T11:57:47.286Z,34.72
2018-11-05T12:00:19.318Z,34.96
2018-11-05T12:02:48.660Z,34.57
2018-11-05T12:05:17.915Z,34.63
2018-11-05T12:07:46.693Z,35.00
2018-11-05T12:10:19.730Z,34.87
2018-11-05T12:12:48.714Z,34.21
2018-11-05T12:15:18.647Z,34.82
2018-11-05T12:17:48.716Z,35.32
2018-11-05T12:20:20.025Z,35.48
2018-11-05T12:22:49.746Z,35.58
2018-11-05T12:25:18.976Z,34.40
2018-11-05T12:27:48.091Z,33.76
2018-11-05T12:30:21.770Z,33.78
2018-11-05T12:32:51.878Z,33.63
2018-11-05T12:35:20.744Z,32.54
2018-11-05T12:37:50.975Z,32.40
2018-11-05T12:40:21.157Z,32.39
2018-11-05T12:42:50.995Z,32.05
2018-11-05T12:45:20.120Z,30.71
2018-11-05T12:47:49.158Z,29.10
2018-11-05T12:52:46.006Z,26.29
2018-11-05T12:55:15.168Z,25.39
2018-11-05T12:57:44.235Z,24.71
2018-11-05T13:00:16.214Z,24.10
2018-11-05T13:02:49.482Z,23.56
2018-11-05T13:05:18.615Z,22.95
2018-11-05T13:07:47.909Z,22.62
2018-11-05T13:10:17.011Z,22.29
2018-11-05T13:12:46.412Z,21.65
2018-11-05T13:15:15.783Z,21.40
2018-11-05T13:17:45.036Z,21.05
2018-11-05T13:20:21.819Z,20.72
2018-11-05T13:22:51.017Z,20.30
2018-11-05T13:25:19.987Z,20.08
2018-11-05T13:27:50.225Z,19.73
2018-11-05T13:30:19.290Z,19.46
2018-11-05T13:32:48.606Z,19.10
2018-11-05T13:35:19.053Z,18.79
2018-11-05T13:37:48.758Z,18.75
2018-11-05T13:40:21.288Z,18.64
2018-11-05T13:42:50.989Z,18.40
2018-11-05T13:45:20.572Z,18.24
2018-11-05T13:47:50.272Z,18.05
2018-11-05T13:50:18.905Z,17.94
2018-11-05T13:52:47.734Z,17.74
2018-11-05T13:55:17.392Z,17.69
2018-11-05T13:57:47.665Z,17.51
2018-11-05T14:00:17.947Z,17.42
2018-11-05T14:02:47.241Z,17.34
2018-11-05T14:05:16.011Z,17.22
2018-11-05T14:07:45.267Z,17.28
2018-11-05T14:10:15.848Z,17.12
2018-11-05T14:12:45.934Z,16.98
2018-11-05T14:15:14.970Z,16.82
2018-11-05T14:17:44.721Z,16.69
2018-11-05T14:20:14.786Z,16.73
2018-11-05T14:22:43.903Z,16.62
2018-11-05T14:25:14.226Z,16.63
2018-11-05T14:27:44.505Z,16.51
2018-11-05T14:30:13.979Z,16.50
2018-11-05T14:32:44.195Z,16.41
2018-11-05T14:35:13.388Z,16.29
2018-11-05T14:37:42.511Z,16.21
2018-11-05T14:40:13.274Z,16.12
2018-11-05T14:42:42.668Z,15.92
2018-11-05T14:45:13.419Z,15.79
2018-11-05T14:47:43.526Z,15.71
2018-11-05T14:50:14.206Z,15.64
2018-11-05T14:52:43.095Z,15.50
2018-11-05T14:55:14.146Z,15.41
2018-11-05T14:57:43.798Z,15.15
2018-11-05T15:00:20.881Z,15.13
2018-11-05T15:02:50.652Z,14.98
2018-11-05T15:05:19.594Z,14.64
2018-11-05T15:07:49.677Z,14.55
2018-11-05T15:10:20.741Z,14.39
2018-11-05T15:12:49.941Z,14.26
2018-11-05T15:15:19.281Z,14.27
2018-11-05T15:17:48.534Z,14.28
2018-11-05T15:20:21.794Z,13.98
2018-11-05T15:22:50.452Z,13.97
2018-11-05T15:25:20.133Z,13.84
2018-11-05T15:27:49.087Z,13.70
2018-11-05T15:30:22.305Z,13.48
2018-11-05T15:32:51.426Z,13.47
2018-11-05T15:35:20.491Z,13.26
2018-11-05T15:37:49.701Z,13.31
2018-11-05T15:40:20.118Z,13.21
2018-11-05T15:42:49.227Z,13.12
2018-11-05T15:45:19.694Z,13.01
2018-11-05T15:47:49.008Z,12.90
2018-11-05T15:50:19.677Z,12.79
2018-11-05T15:52:49.106Z,12.70
2018-11-05T15:55:18.366Z,12.50
2018-11-05T15:57:47.458Z,12.47
2018-11-05T16:00:21.825Z,12.39
2018-11-05T16:02:53.110Z,12.51
2018-11-05T16:05:22.228Z,12.42
2018-11-05T16:07:51.539Z,12.31
2018-11-05T16:10:21.006Z,12.23
2018-11-05T16:12:50.268Z,12.14
2018-11-05T16:15:19.392Z,12.05
2018-11-05T16:17:48.343Z,11.93
2018-11-05T16:20:18.734Z,11.72
2018-11-05T16:22:48.751Z,11.46
2018-11-05T16:25:17.883Z,11.31
2018-11-05T16:27:47.681Z,11.23
2018-11-05T16:30:19.112Z,11.19
2018-11-05T16:32:48.922Z,11.12
2018-11-05T16:35:18.057Z,11.07
2018-11-05T16:37:47.327Z,11.01
2018-11-05T16:40:17.494Z,11.05
2018-11-05T16:42:47.299Z,11.04
2018-11-05T16:45:16.539Z,11.03
2018-11-05T16:47:45.642Z,10.98
2018-11-05T16:50:21.042Z,11.00
2018-11-05T16:52:50.234Z,10.99
2018-11-05T16:55:19.141Z,10.94
2018-11-05T16:57:48.037Z,10.96
2018-11-05T17:00:17.362Z,10.93
2018-11-05T17:02:47.353Z,10.92
2018-11-05T17:05:16.374Z,10.91
2018-11-05T17:07:45.595Z,10.91
2018-11-05T17:10:15.343Z,10.94
2018-11-05T17:12:45.149Z,10.86
2018-11-05T17:15:15.317Z,10.98
2018-11-05T17:17:44.534Z,10.84
2018-11-05T17:20:16.679Z,10.67
2018-11-05T17:22:46.167Z,10.53
2018-11-05T17:25:15.834Z,10.42
2018-11-05T17:27:45.513Z,10.41
2018-11-05T17:30:17.109Z,10.37
2018-11-05T17:32:46.509Z,10.38
2018-11-05T17:35:16.150Z,10.25
2018-11-05T17:37:46.836Z,10.18
2018-11-05T17:40:17.891Z,10.11
2018-11-05T17:42:47.023Z,10.02
2018-11-05T17:45:17.142Z,9.96
2018-11-05T17:47:46.057Z,9.95
2018-11-05T17:50:16.474Z,9.97
2018-11-05T17:52:45.789Z,9.92
2018-11-05T17:55:15.515Z,9.88
2018-11-05T17:57:45.563Z,9.84
2018-11-05T18:00:16.287Z,9.80
2018-11-05T18:02:45.577Z,9.74
2018-11-05T18:05:14.910Z,9.71
2018-11-05T18:07:44.366Z,9.69
2018-11-05T18:10:13.132Z,9.67
2018-11-05T18:12:42.252Z,9.66
2018-11-05T18:15:12.514Z,9.64
2018-11-05T18:17:42.598Z,9.60
2018-11-05T18:20:13.124Z,9.57
2018-11-05T18:22:42.552Z,9.61
2018-11-05T18:25:13.914Z,9.59
2018-11-05T18:27:43.274Z,9.54
2018-11-05T18:30:12.867Z,9.47
2018-11-05T18:32:42.128Z,9.43
2018-11-05T18:35:12.492Z,9.44
2018-11-05T18:37:43.297Z,9.48
2018-11-05T18:40:13.901Z,9.45
2018-11-05T18:42:43.213Z,9.40
2018-11-05T18:45:12.538Z,9.37
2018-11-05T18:47:41.855Z,9.40
2018-11-05T18:50:12.516Z,9.46
2018-11-05T18:52:41.388Z,9.50
2018-11-05T18:55:11.561Z,9.52
2018-11-05T18:57:40.910Z,9.51
2018-11-05T19:00:19.010Z,9.49
2018-11-05T19:02:49.557Z,9.47
2018-11-05T19:05:19.219Z,9.46
2018-11-05T19:07:48.572Z,9.46
2018-11-05T19:10:17.851Z,9.41
2018-11-05T19:12:47.185Z,9.44
2018-11-05T19:15:16.704Z,9.40
2018-11-05T19:17:46.442Z,9.36
2018-11-05T19:20:15.455Z,9.35
2018-11-05T19:22:45.222Z,9.36
2018-11-05T19:25:14.986Z,9.36
2018-11-05T19:27:44.193Z,9.39
2018-11-05T19:30:15.432Z,9.36
2018-11-05T19:32:45.365Z,9.33
2018-11-05T19:35:14.559Z,9.26
2018-11-05T19:37:43.912Z,9.26
2018-11-05T19:40:14.039Z,9.27
2018-11-05T19:42:44.279Z,9.32
2018-11-05T19:45:14.823Z,9.37
2018-11-05T19:47:43.774Z,9.36
2018-11-05T19:50:14.984Z,9.32
2018-11-05T19:52:44.941Z,9.30
2018-11-05T19:55:15.155Z,9.29
2018-11-05T19:57:44.985Z,9.31
2018-11-05T20:00:19.956Z,9.43
2018-11-05T20:02:49.691Z,9.44
2018-11-05T20:05:18.892Z,9.41
2018-11-05T20:07:48.522Z,9.37
2018-11-05T20:10:17.487Z,9.40
2018-11-05T20:12:46.961Z,9.39
2018-11-05T20:15:15.993Z,9.39
2018-11-05T20:17:45.922Z,9.31
2018-11-05T20:20:16.866Z,9.29
2018-11-05T20:22:46.018Z,9.29
2018-11-05T20:25:15.198Z,9.27
2018-11-05T20:27:44.598Z,9.28
2018-11-05T20:30:16.674Z,9.24
2018-11-05T20:32:47.009Z,9.20
2018-11-05T20:35:16.251Z,9.21
2018-11-05T20:37:45.386Z,9.15
2018-11-05T20:40:15.798Z,9.13
2018-11-05T20:42:45.925Z,9.10
2018-11-05T20:45:15.498Z,9.04
2018-11-05T20:47:44.687Z,8.97
2018-11-05T20:50:14.363Z,8.96
2018-11-05T20:52:43.442Z,8.95
2018-11-05T20:55:13.911Z,8.96
2018-11-05T20:57:43.557Z,8.96
2018-11-05T21:00:14.313Z,8.96
2018-11-05T21:02:43.859Z,9.00
2018-11-05T21:05:13.206Z,9.01
2018-11-05T21:07:43.165Z,9.02
2018-11-05T21:10:13.399Z,8.99
2018-11-05T21:12:43.211Z,8.98
2018-11-05T21:15:21.657Z,8.98
2018-11-05T21:17:51.664Z,8.97
2018-11-05T21:20:20.869Z,9.00
2018-11-05T21:22:50.229Z,9.04
2018-11-05T21:25:19.190Z,9.04
2018-11-05T21:27:48.274Z,9.03
2018-11-05T21:30:18.779Z,9.00
2018-11-05T21:32:48.038Z,9.01
2018-11-05T21:35:18.526Z,8.94
2018-11-05T21:37:47.444Z,8.84
2018-11-05T21:40:18.017Z,8.59
2018-11-05T21:42:47.140Z,8.69
2018-11-05T21:45:16.687Z,8.77
2018-11-05T21:47:46.354Z,8.79
2018-11-05T21:50:17.617Z,8.71
2018-11-05T21:52:46.933Z,8.63
2018-11-05T21:55:15.965Z,8.53
2018-11-05T21:57:46.521Z,8.46
2018-11-05T22:00:17.249Z,8.51
2018-11-05T22:02:51.450Z,8.47
2018-11-05T22:05:20.658Z,8.53
2018-11-05T22:07:49.770Z,8.51
2018-11-05T22:10:19.043Z,8.69
2018-11-05T22:12:48.709Z,8.73
2018-11-05T22:15:18.117Z,8.75
2018-11-05T22:17:47.209Z,8.80
2018-11-05T22:20:16.315Z,8.76
2018-11-05T22:22:45.437Z,8.70
2018-11-05T22:25:14.226Z,8.61
2018-11-05T22:27:43.243Z,8.71
2018-11-05T22:30:12.986Z,8.67
2018-11-05T22:32:42.162Z,8.63
2018-11-05T22:35:11.283Z,8.59
2018-11-05T22:37:40.349Z,8.56
2018-11-05T22:40:12.039Z,8.57
2018-11-05T22:42:41.271Z,8.52
2018-11-05T22:45:11.758Z,8.44
2018-11-05T22:47:41.158Z,8.39
2018-11-05T22:50:10.265Z,8.36
2018-11-05T22:52:40.066Z,8.32
2018-11-05T22:55:09.551Z,8.29
2018-11-05T22:57:38.500Z,8.25
2018-11-05T23:00:15.337Z,8.23
2018-11-05T23:02:49.422Z,8.17
2018-11-05T23:05:18.841Z,8.12
2018-11-05T23:07:47.962Z,8.08
2018-11-05T23:10:17.113Z,8.15
2018-11-05T23:12:46.054Z,8.11
2018-11-05T23:15:15.064Z,8.07
2018-11-05T23:17:43.931Z,8.07
2018-11-05T23:20:13.045Z,8.04
2018-11-05T23:22:42.539Z,8.00
2018-11-05T23:25:11.515Z,7.99
2018-11-05T23:27:40.682Z,8.02
2018-11-05T23:30:12.481Z,7.99
2018-11-05T23:32:41.906Z,7.93
2018-11-05T23:35:11.515Z,7.87
2018-11-05T23:37:41.424Z,7.81
2018-11-05T23:40:11.049Z,7.75
2018-11-05T23:42:40.594Z,7.69
2018-11-05T23:45:11.821Z,7.68
2018-11-05T23:47:41.194Z,7.66
2018-11-05T23:50:10.874Z,7.64
2018-11-05T23:52:40.140Z,7.68
2018-11-05T23:55:10.293Z,7.72
2018-11-05T23:57:39.354Z,7.69
